PWSweather.com
Personal Weather Stations
Station Observations
KJ4AJP
Beautiful Downtown Gardner, Martin, TN 38237

Beautiful Downtown GardnerMartin, TN 38237

Lat: 36.358, Lon: -88.8994

Elevation: 384.3

Station Type: TP1080WC

http://weather.mambm.com/

High Low Average
Temperature 88.5°F31.4°C 63.7°F17.6°C 76.4°F24.7°C
Dew Point 74.4°F23.6°C 59.3°F15.2°C 66.6°F19.2°C
Winds 9.8 mph 15.8 kmh Calm Calm 3.0 mph S4.8 kmh S
Wind Gusts 22.8 mph36.7 kmh 3.1 mph5.0 kmh 10.0 mph16.1 kmh
Humidity 87% 55% 72%
Pressure 29.96 in1014.6 mb 29.82 in1009.8 mb -
Precipitation 0.00 in0.0 mm - -
Hour Temp Dew Point Humidity Winds Wind Gusts Pressure Precip Precip Rate Daily Precip Total
12:00 AM 67.3°F19.6°C 60.2°F15.7°C 78% 0.7 mph SE1.1 kmh SE 5.4 mph8.7 kmh 29.98 in1015.2 mb 0.00 in0.0 mm 0.00 in0.0 mm 0.00 in0.0 mm
12:15 AM 67.1°F19.5°C 60.4°F15.8°C 79% 1.6 mph ESE2.6 kmh ESE 6.0 mph9.7 kmh 29.97 in1014.9 mb 0.00 in0.0 mm 0.00 in0.0 mm 0.00 in0.0 mm
12:30 AM 67.1°F19.5°C 60.4°F15.8°C 79% 2.2 mph SE3.5 kmh SE 6.9 mph11.1 kmh 29.97 in1014.9 mb 0.00 in0.0 mm 0.00 in0.0 mm 0.00 in0.0 mm
12:45 AM 67.3°F19.6°C 60.6°F15.9°C 79% 1.6 mph SE2.6 kmh SE 6.9 mph11.1 kmh 29.96 in1014.6 mb 0.00 in0.0 mm 0.00 in0.0 mm 0.00 in0.0 mm
01:00 AM 67.3°F19.6°C 60.6°F15.9°C 79% 0.7 mph SE1.1 kmh SE 6.0 mph9.7 kmh 29.96 in1014.6 mb 0.00 in0.0 mm 0.00 in0.0 mm 0.00 in0.0 mm
01:15 AM 66.9°F19.4°C 60.6°F15.9°C 80% 3.1 mph SE5.0 kmh SE 7.6 mph12.2 kmh 29.96 in1014.6 mb 0.00 in0.0 mm 0.00 in0.0 mm 0.00 in0.0 mm
01:30 AM 66.7°F19.3°C 60.4°F15.8°C 80% 2.2 mph SE3.5 kmh SE 5.4 mph8.7 kmh 29.95 in1014.2 mb 0.00 in0.0 mm 0.00 in0.0 mm 0.00 in0.0 mm
01:45 AM 66.4°F19.1°C 60.4°F15.8°C 81% 1.6 mph SE2.6 kmh SE 6.9 mph11.1 kmh 29.95 in1014.2 mb 0.00 in0.0 mm 0.00 in0.0 mm 0.00 in0.0 mm
02:00 AM 66.0°F18.9°C 60.0°F15.6°C 81% 2.2 mph SE3.5 kmh SE 4.5 mph7.2 kmh 29.94 in1013.9 mb 0.00 in0.0 mm 0.00 in0.0 mm 0.00 in0.0 mm
02:15 AM 65.5°F18.6°C 59.9°F15.5°C 82% 1.6 mph SE2.6 kmh SE 3.8 mph6.1 kmh 29.95 in1014.2 mb 0.00 in0.0 mm 0.00 in0.0 mm 0.00 in0.0 mm
02:30 AM 65.1°F18.4°C 59.8°F15.4°C 83% 0.7 mph SE1.1 kmh SE 4.5 mph7.2 kmh 29.94 in1013.9 mb 0.00 in0.0 mm 0.00 in0.0 mm 0.00 in0.0 mm
02:45 AM 64.9°F18.3°C 59.7°F15.4°C 83% 3.1 mph S5.0 kmh S 6.9 mph11.1 kmh 29.94 in1013.9 mb 0.00 in0.0 mm 0.00 in0.0 mm 0.00 in0.0 mm
03:00 AM 64.9°F18.3°C 59.7°F15.4°C 83% 0.7 mph S1.1 kmh S 4.5 mph7.2 kmh 29.93 in1013.5 mb 0.00 in0.0 mm 0.00 in0.0 mm 0.00 in0.0 mm
03:15 AM 64.6°F18.1°C 59.7°F15.4°C 84% Calm Calm 6.0 mph9.7 kmh 29.93 in1013.5 mb 0.00 in0.0 mm 0.00 in0.0 mm 0.00 in0.0 mm
03:30 AM 64.6°F18.1°C 59.7°F15.4°C 84% 0.7 mph S1.1 kmh S 6.0 mph9.7 kmh 29.93 in1013.5 mb 0.00 in0.0 mm 0.00 in0.0 mm 0.00 in0.0 mm
03:45 AM 64.6°F18.1°C 59.7°F15.4°C 84% 0.7 mph S1.1 kmh S 4.5 mph7.2 kmh 29.94 in1013.9 mb 0.00 in0.0 mm 0.00 in0.0 mm 0.00 in0.0 mm
04:00 AM 64.4°F18.0°C 59.5°F15.3°C 84% 0.7 mph S1.1 kmh S 3.1 mph5.0 kmh 29.93 in1013.5 mb 0.00 in0.0 mm 0.00 in0.0 mm 0.00 in0.0 mm
04:15 AM 64.2°F17.9°C 59.6°F15.3°C 85% 0.7 mph SSE1.1 kmh SSE 3.8 mph6.1 kmh 29.94 in1013.9 mb 0.00 in0.0 mm 0.00 in0.0 mm 0.00 in0.0 mm
04:30 AM 63.9°F17.7°C 59.3°F15.2°C 85% 0.7 mph S1.1 kmh S 3.8 mph6.1 kmh 29.93 in1013.5 mb 0.00 in0.0 mm 0.00 in0.0 mm 0.00 in0.0 mm
04:45 AM 63.7°F17.6°C 59.4°F15.2°C 86% Calm Calm 4.5 mph7.2 kmh 29.94 in1013.9 mb 0.00 in0.0 mm 0.00 in0.0 mm 0.00 in0.0 mm
05:00 AM 63.7°F17.6°C 59.8°F15.4°C 87% 1.6 mph SSE2.6 kmh SSE 6.0 mph9.7 kmh 29.94 in1013.9 mb 0.00 in0.0 mm 0.00 in0.0 mm 0.00 in0.0 mm
05:15 AM 63.9°F17.7°C 59.9°F15.5°C 87% 2.2 mph SE3.5 kmh SE 4.5 mph7.2 kmh 29.94 in1013.9 mb 0.00 in0.0 mm 0.00 in0.0 mm 0.00 in0.0 mm
05:30 AM 64.0°F17.8°C 60.1°F15.6°C 87% 0.7 mph S1.1 kmh S 3.8 mph6.1 kmh 29.94 in1013.9 mb 0.00 in0.0 mm 0.00 in0.0 mm 0.00 in0.0 mm
05:45 AM 64.2°F17.9°C 60.3°F15.7°C 87% 0.7 mph SSE1.1 kmh SSE 5.4 mph8.7 kmh 29.94 in1013.9 mb 0.00 in0.0 mm 0.00 in0.0 mm 0.00 in0.0 mm
06:00 AM 64.8°F18.2°C 60.8°F16.0°C 87% 3.8 mph SE6.1 kmh SE 7.6 mph12.2 kmh 29.95 in1014.2 mb 0.00 in0.0 mm 0.00 in0.0 mm 0.00 in0.0 mm
06:15 AM 65.7°F18.7°C 61.7°F16.5°C 87% 2.2 mph SSE3.5 kmh SSE 8.3 mph13.4 kmh 29.94 in1013.9 mb 0.00 in0.0 mm 0.00 in0.0 mm 0.00 in0.0 mm
06:30 AM 66.0°F18.9°C 61.7°F16.5°C 86% 1.6 mph SSE2.6 kmh SSE 9.2 mph14.8 kmh 29.95 in1014.2 mb 0.00 in0.0 mm 0.00 in0.0 mm 0.00 in0.0 mm
06:45 AM 66.6°F19.2°C 62.3°F16.8°C 86% 2.2 mph S3.5 kmh S 8.3 mph13.4 kmh 29.96 in1014.6 mb 0.00 in0.0 mm 0.00 in0.0 mm 0.00 in0.0 mm
07:00 AM 67.6°F19.8°C 63.3°F17.4°C 86% 3.1 mph S5.0 kmh S 7.6 mph12.2 kmh 29.96 in1014.6 mb 0.00 in0.0 mm 0.00 in0.0 mm 0.00 in0.0 mm
07:15 AM 68.9°F20.5°C 64.2°F17.9°C 85% 3.8 mph SSE6.1 kmh SSE 6.9 mph11.1 kmh 29.96 in1014.6 mb 0.00 in0.0 mm 0.00 in0.0 mm 0.00 in0.0 mm
07:30 AM 69.8°F21.0°C 64.4°F18.0°C 83% 2.2 mph S3.5 kmh S 9.8 mph15.8 kmh 29.96 in1014.6 mb 0.00 in0.0 mm 0.00 in0.0 mm 0.00 in0.0 mm
07:45 AM 70.3°F21.3°C 64.6°F18.1°C 82% 2.2 mph SSE3.5 kmh SSE 10.7 mph17.2 kmh 29.96 in1014.6 mb 0.00 in0.0 mm 0.00 in0.0 mm 0.00 in0.0 mm
08:00 AM 71.1°F21.7°C 65.0°F18.3°C 81% 3.1 mph S5.0 kmh S 9.8 mph15.8 kmh 29.95 in1014.2 mb 0.00 in0.0 mm 0.00 in0.0 mm 0.00 in0.0 mm
08:15 AM 72.5°F22.5°C 66.0°F18.9°C 80% 8.3 mph SSW13.4 kmh SSW 11.4 mph18.3 kmh 29.95 in1014.2 mb 0.00 in0.0 mm 0.00 in0.0 mm 0.00 in0.0 mm
08:30 AM 73.8°F23.2°C 66.9°F19.4°C 79% 6.9 mph S11.1 kmh S 13.0 mph20.9 kmh 29.95 in1014.2 mb 0.00 in0.0 mm 0.00 in0.0 mm 0.00 in0.0 mm
08:45 AM 75.9°F24.4°C 67.9°F19.9°C 76% 6.9 mph S11.1 kmh S 14.5 mph23.3 kmh 29.95 in1014.2 mb 0.00 in0.0 mm 0.00 in0.0 mm 0.00 in0.0 mm
09:00 AM 76.6°F24.8°C 68.2°F20.1°C 75% 3.8 mph S6.1 kmh S 12.1 mph19.5 kmh 29.95 in1014.2 mb 0.00 in0.0 mm 0.00 in0.0 mm 0.00 in0.0 mm
09:15 AM 76.8°F24.9°C 68.3°F20.2°C 75% 3.1 mph SSW5.0 kmh SSW 12.1 mph19.5 kmh 29.95 in1014.2 mb 0.00 in0.0 mm 0.00 in0.0 mm 0.00 in0.0 mm
09:30 AM 77.4°F25.2°C 69.2°F20.7°C 76% 5.4 mph SSE8.7 kmh SSE 10.7 mph17.2 kmh 29.93 in1013.5 mb 0.00 in0.0 mm 0.00 in0.0 mm 0.00 in0.0 mm
09:45 AM 78.1°F25.6°C 69.6°F20.9°C 75% 1.6 mph S2.6 kmh S 10.7 mph17.2 kmh 29.93 in1013.5 mb 0.00 in0.0 mm 0.00 in0.0 mm 0.00 in0.0 mm
10:00 AM 79.2°F26.2°C 69.8°F21.0°C 73% 5.4 mph S8.7 kmh S 11.4 mph18.3 kmh 29.94 in1013.9 mb 0.00 in0.0 mm 0.00 in0.0 mm 0.00 in0.0 mm
10:15 AM 80.8°F27.1°C 71.0°F21.7°C 72% 6.0 mph S9.7 kmh S 13.6 mph21.9 kmh 29.93 in1013.5 mb 0.00 in0.0 mm 0.00 in0.0 mm 0.00 in0.0 mm
10:30 AM 80.1°F26.7°C 69.9°F21.1°C 71% 3.8 mph SW6.1 kmh SW 12.1 mph19.5 kmh 29.94 in1013.9 mb 0.00 in0.0 mm 0.00 in0.0 mm 0.00 in0.0 mm
10:45 AM 79.9°F26.6°C 70.5°F21.4°C 73% 2.2 mph SW3.5 kmh SW 9.8 mph15.8 kmh 29.94 in1013.9 mb 0.00 in0.0 mm 0.00 in0.0 mm 0.00 in0.0 mm
11:00 AM 79.9°F26.6°C 70.1°F21.2°C 72% 3.8 mph SW6.1 kmh SW 13.0 mph20.9 kmh 29.94 in1013.9 mb 0.00 in0.0 mm 0.00 in0.0 mm 0.00 in0.0 mm
11:15 AM 81.5°F27.5°C 71.7°F22.1°C 72% 5.4 mph SSW8.7 kmh SSW 9.8 mph15.8 kmh 29.93 in1013.5 mb 0.00 in0.0 mm 0.00 in0.0 mm 0.00 in0.0 mm
11:30 AM 83.1°F28.4°C 72.0°F22.2°C 69% 1.6 mph SSW2.6 kmh SSW 15.9 mph25.6 kmh 29.93 in1013.5 mb 0.00 in0.0 mm 0.00 in0.0 mm 0.00 in0.0 mm
11:45 AM 83.8°F28.8°C 72.2°F22.3°C 68% 3.8 mph S6.1 kmh S 13.6 mph21.9 kmh 29.93 in1013.5 mb 0.00 in0.0 mm 0.00 in0.0 mm 0.00 in0.0 mm
12:00 PM 83.5°F28.6°C 71.9°F22.2°C 68% 3.8 mph SSW6.1 kmh SSW 12.1 mph19.5 kmh 29.94 in1013.9 mb 0.00 in0.0 mm 0.00 in0.0 mm 0.00 in0.0 mm
12:15 PM 83.3°F28.5°C 72.1°F22.3°C 69% 5.4 mph SE8.7 kmh SE 13.6 mph21.9 kmh 29.93 in1013.5 mb 0.00 in0.0 mm 0.00 in0.0 mm 0.00 in0.0 mm
12:30 PM 83.3°F28.5°C 71.7°F22.1°C 68% 6.0 mph SW9.7 kmh SW 15.2 mph24.5 kmh 29.92 in1013.2 mb 0.00 in0.0 mm 0.00 in0.0 mm 0.00 in0.0 mm
12:45 PM 83.5°F28.6°C 71.0°F21.7°C 66% 5.4 mph SW8.7 kmh SW 13.6 mph21.9 kmh 29.91 in1012.9 mb 0.00 in0.0 mm 0.00 in0.0 mm 0.00 in0.0 mm
01:00 PM 84.6°F29.2°C 72.5°F22.5°C 67% 7.6 mph SSW12.2 kmh SSW 15.9 mph25.6 kmh 29.90 in1012.5 mb 0.00 in0.0 mm 0.00 in0.0 mm 0.00 in0.0 mm
01:15 PM 86.7°F30.4°C 74.1°F23.4°C 66% 4.5 mph SSE7.2 kmh SSE 9.2 mph14.8 kmh 29.90 in1012.5 mb 0.00 in0.0 mm 0.00 in0.0 mm 0.00 in0.0 mm
01:30 PM 87.8°F31.0°C 74.2°F23.4°C 64% 3.8 mph SW6.1 kmh SW 18.3 mph29.5 kmh 29.90 in1012.5 mb 0.00 in0.0 mm 0.00 in0.0 mm 0.00 in0.0 mm
01:45 PM 87.8°F31.0°C 73.2°F22.9°C 62% 6.0 mph S9.7 kmh S 16.8 mph27.0 kmh 29.89 in1012.2 mb 0.00 in0.0 mm 0.00 in0.0 mm 0.00 in0.0 mm
02:00 PM 88.2°F31.2°C 74.0°F23.3°C 63% 5.4 mph S8.7 kmh S 15.2 mph24.5 kmh 29.88 in1011.9 mb 0.00 in0.0 mm 0.00 in0.0 mm 0.00 in0.0 mm
02:15 PM 88.5°F31.4°C 73.4°F23.0°C 61% 9.8 mph SSE15.8 kmh SSE 22.8 mph36.7 kmh 29.88 in1011.9 mb 0.00 in0.0 mm 0.00 in0.0 mm 0.00 in0.0 mm
02:30 PM 87.6°F30.9°C 73.1°F22.8°C 62% 6.0 mph SW9.7 kmh SW 16.8 mph27.0 kmh 29.87 in1011.5 mb 0.00 in0.0 mm 0.00 in0.0 mm 0.00 in0.0 mm
02:45 PM 87.3°F30.7°C 72.7°F22.6°C 62% 6.9 mph S11.1 kmh S 18.3 mph29.5 kmh 29.88 in1011.9 mb 0.00 in0.0 mm 0.00 in0.0 mm 0.00 in0.0 mm
03:00 PM 86.0°F30.0°C 72.5°F22.5°C 64% 3.1 mph SSW5.0 kmh SSW 13.6 mph21.9 kmh 29.87 in1011.5 mb 0.00 in0.0 mm 0.00 in0.0 mm 0.00 in0.0 mm
03:15 PM 84.7°F29.3°C 72.2°F22.3°C 66% 3.8 mph SW6.1 kmh SW 11.4 mph18.3 kmh 29.87 in1011.5 mb 0.00 in0.0 mm 0.00 in0.0 mm 0.00 in0.0 mm
03:30 PM 84.6°F29.2°C 72.5°F22.5°C 67% 5.4 mph SW8.7 kmh SW 11.4 mph18.3 kmh 29.87 in1011.5 mb 0.00 in0.0 mm 0.00 in0.0 mm 0.00 in0.0 mm
03:45 PM 85.8°F29.9°C 73.2°F22.9°C 66% 7.6 mph S12.2 kmh S 18.3 mph29.5 kmh 29.86 in1011.2 mb 0.00 in0.0 mm 0.00 in0.0 mm 0.00 in0.0 mm
04:00 PM 86.7°F30.4°C 74.1°F23.4°C 66% 3.1 mph S5.0 kmh S 13.6 mph21.9 kmh 29.85 in1010.8 mb 0.00 in0.0 mm 0.00 in0.0 mm 0.00 in0.0 mm
04:15 PM 86.5°F30.3°C 73.4°F23.0°C 65% 6.9 mph S11.1 kmh S 11.4 mph18.3 kmh 29.84 in1010.5 mb 0.00 in0.0 mm 0.00 in0.0 mm 0.00 in0.0 mm
04:30 PM 87.1°F30.6°C 74.4°F23.6°C 66% 4.5 mph S7.2 kmh S 15.9 mph25.6 kmh 29.84 in1010.5 mb 0.00 in0.0 mm 0.00 in0.0 mm 0.00 in0.0 mm
04:45 PM 87.6°F30.9°C 72.6°F22.6°C 61% 8.3 mph S13.4 kmh S 15.9 mph25.6 kmh 29.83 in1010.2 mb 0.00 in0.0 mm 0.00 in0.0 mm 0.00 in0.0 mm
05:00 PM 87.3°F30.7°C 72.7°F22.6°C 62% 6.9 mph SSW11.1 kmh SSW 15.2 mph24.5 kmh 29.84 in1010.5 mb 0.00 in0.0 mm 0.00 in0.0 mm 0.00 in0.0 mm
05:15 PM 86.0°F30.0°C 72.0°F22.2°C 63% 3.8 mph S6.1 kmh S 13.0 mph20.9 kmh 29.83 in1010.2 mb 0.00 in0.0 mm 0.00 in0.0 mm 0.00 in0.0 mm
05:30 PM 85.8°F29.9°C 71.8°F22.1°C 63% 7.6 mph SSW12.2 kmh SSW 14.5 mph23.3 kmh 29.83 in1010.2 mb 0.00 in0.0 mm 0.00 in0.0 mm 0.00 in0.0 mm
05:45 PM 86.5°F30.3°C 70.6°F21.4°C 59% 3.8 mph SSW6.1 kmh SSW 16.8 mph27.0 kmh 29.83 in1010.2 mb 0.00 in0.0 mm 0.00 in0.0 mm 0.00 in0.0 mm
06:00 PM 85.8°F29.9°C 68.4°F20.2°C 56% 6.9 mph S11.1 kmh S 16.8 mph27.0 kmh 29.82 in1009.8 mb 0.00 in0.0 mm 0.00 in0.0 mm 0.00 in0.0 mm
06:15 PM 85.6°F29.8°C 68.2°F20.1°C 56% 6.9 mph SSW11.1 kmh SSW 15.9 mph25.6 kmh 29.83 in1010.2 mb 0.00 in0.0 mm 0.00 in0.0 mm 0.00 in0.0 mm
06:30 PM 84.7°F29.3°C 66.8°F19.3°C 55% 6.0 mph S9.7 kmh S 16.8 mph27.0 kmh 29.83 in1010.2 mb 0.00 in0.0 mm 0.00 in0.0 mm 0.00 in0.0 mm
06:45 PM 84.0°F28.9°C 66.2°F19.0°C 55% 6.9 mph SSW11.1 kmh SSW 13.6 mph21.9 kmh 29.84 in1010.5 mb 0.00 in0.0 mm 0.00 in0.0 mm 0.00 in0.0 mm
07:00 PM 83.3°F28.5°C 66.0°F18.9°C 56% 3.8 mph SSW6.1 kmh SSW 13.0 mph20.9 kmh 29.84 in1010.5 mb 0.00 in0.0 mm 0.00 in0.0 mm 0.00 in0.0 mm
07:15 PM 82.8°F28.2°C 66.5°F19.2°C 58% 4.5 mph SSW7.2 kmh SSW 10.7 mph17.2 kmh 29.84 in1010.5 mb 0.00 in0.0 mm 0.00 in0.0 mm 0.00 in0.0 mm
07:27 PM 82.0°F27.8°C 66.3°F19.1°C 59% 2.2 mph S3.5 kmh S 6.0 mph9.7 kmh 29.84 in1010.5 mb 0.00 in0.0 mm 0.00 in0.0 mm 0.00 in0.0 mm
07:45 PM 81.3°F27.4°C 66.6°F19.2°C 61% 4.5 mph S7.2 kmh S 8.3 mph13.4 kmh 29.84 in1010.5 mb 0.00 in0.0 mm 0.00 in0.0 mm 0.00 in0.0 mm
08:00 PM 80.4°F26.9°C 66.3°F19.1°C 62% 1.6 mph S2.6 kmh S 9.2 mph14.8 kmh 29.84 in1010.5 mb 0.00 in0.0 mm 0.00 in0.0 mm 0.00 in0.0 mm
08:15 PM 79.5°F26.4°C 66.3°F19.1°C 64% 1.6 mph S2.6 kmh S 12.1 mph19.5 kmh 29.85 in1010.8 mb 0.00 in0.0 mm 0.00 in0.0 mm 0.00 in0.0 mm
08:30 PM 78.6°F25.9°C 65.9°F18.8°C 65% 1.6 mph S2.6 kmh S 6.0 mph9.7 kmh 29.85 in1010.8 mb 0.00 in0.0 mm 0.00 in0.0 mm 0.00 in0.0 mm
08:45 PM 77.9°F25.5°C 66.1°F18.9°C 67% 3.1 mph SSE5.0 kmh SSE 6.9 mph11.1 kmh 29.85 in1010.8 mb 0.00 in0.0 mm 0.00 in0.0 mm 0.00 in0.0 mm
09:00 PM 77.2°F25.1°C 65.8°F18.8°C 68% 1.6 mph S2.6 kmh S 5.4 mph8.7 kmh 29.86 in1011.2 mb 0.00 in0.0 mm 0.00 in0.0 mm 0.00 in0.0 mm
09:15 PM 76.5°F24.7°C 65.6°F18.7°C 69% 0.7 mph S1.1 kmh S 6.0 mph9.7 kmh 29.86 in1011.2 mb 0.00 in0.0 mm 0.00 in0.0 mm 0.00 in0.0 mm
09:30 PM 75.7°F24.3°C 65.3°F18.5°C 70% 2.2 mph S3.5 kmh S 5.4 mph8.7 kmh 29.86 in1011.2 mb 0.00 in0.0 mm 0.00 in0.0 mm 0.00 in0.0 mm
09:45 PM 75.2°F24.0°C 65.2°F18.4°C 71% 1.6 mph S2.6 kmh S 6.0 mph9.7 kmh 29.87 in1011.5 mb 0.00 in0.0 mm 0.00 in0.0 mm 0.00 in0.0 mm
10:00 PM 74.7°F23.7°C 65.5°F18.6°C 73% 3.8 mph S6.1 kmh S 6.9 mph11.1 kmh 29.87 in1011.5 mb 0.00 in0.0 mm 0.00 in0.0 mm 0.00 in0.0 mm
10:15 PM 74.7°F23.7°C 65.1°F18.4°C 72% 3.1 mph S5.0 kmh S 6.9 mph11.1 kmh 29.88 in1011.9 mb 0.00 in0.0 mm 0.00 in0.0 mm 0.00 in0.0 mm
10:30 PM 74.8°F23.8°C 64.8°F18.2°C 71% 3.1 mph S5.0 kmh S 7.6 mph12.2 kmh 29.88 in1011.9 mb 0.00 in0.0 mm 0.00 in0.0 mm 0.00 in0.0 mm
10:45 PM 74.7°F23.7°C 64.7°F18.2°C 71% 0.7 mph SSE1.1 kmh SSE 6.0 mph9.7 kmh 29.88 in1011.9 mb 0.00 in0.0 mm 0.00 in0.0 mm 0.00 in0.0 mm
11:00 PM 75.0°F23.9°C 64.6°F18.1°C 70% 2.2 mph S3.5 kmh S 6.9 mph11.1 kmh 29.89 in1012.2 mb 0.00 in0.0 mm 0.00 in0.0 mm 0.00 in0.0 mm
11:15 PM 75.2°F24.0°C 64.8°F18.2°C 70% 3.1 mph SSW5.0 kmh SSW 7.6 mph12.2 kmh 29.89 in1012.2 mb 0.00 in0.0 mm 0.00 in0.0 mm 0.00 in0.0 mm
11:30 PM 75.2°F24.0°C 64.8°F18.2°C 70% 1.6 mph S2.6 kmh S 4.5 mph7.2 kmh 29.89 in1012.2 mb 0.00 in0.0 mm 0.00 in0.0 mm 0.00 in0.0 mm
11:45 PM 74.8°F23.8°C 64.4°F18.0°C 70% 0.7 mph S1.1 kmh S 6.9 mph11.1 kmh 29.89 in1012.2 mb 0.00 in0.0 mm 0.00 in0.0 mm 0.00 in0.0 mm